John G — WDF2677 — position and weather

sailwx.info

Track history (hours):
 
Tides and Currents Weather Stations Pressure Air Temp Water Temp Dewpoint Dewpoint Depression Visibility Wind Speed Wind Dir Waves Ship Positions

John G

Owner: Marquette Transportation Company Offshore LLC, Jefferson, LA. More information available from US FCC via Universal Licensing System and Coast Guard Vessel Documentation Center.

Last reported at 2015-May-20 04:18 UTC. Time now 2015-May-25 01:25 UTC.
Position N 29°33' W 090°24'.

Length 30 m; draft 3.3 m.

Type: Towing. MMSI: 367009680.

Date/timePositionNaut miles runAvg speedWind from/ knotsBaromVisibWave heightAir tempDewpointWater temp
2015-May-20 04:18N 29°33' W 090°24'4 5.0
2015-May-20 03:30N 29°34' W 090°28'5 4.9
2015-May-20 02:27N 29°34' W 090°34'4 4.1
2015-May-20 01:33N 29°35' W 090°38'4 3.9
2015-May-20 00:33N 29°37' W 090°42'3 3.3
2015-May-19 23:34N 29°34' W 090°44'3 2.8
2015-May-19 22:34N 29°32' W 090°47'6 6.1
2015-May-19 21:33N 29°33' W 090°54'  
2015-May-16 22:33N 29°22' W 094°48'21 6.9
2015-May-16 19:33N 29°41' W 094°59'5 3.9
2015-May-16 18:20N 29°44' W 095°03'0 0.1
2015-May-16 17:33N 29°44' W 095°03'0 0.1
2015-May-16 16:32N 29°44' W 095°03'0 0.1
2015-May-16 15:34N 29°44' W 095°03'0 0.0
2015-May-16 14:33N 29°44' W 095°03'0 0.0
2015-May-16 13:34N 29°44' W 095°03'0 0.0
2015-May-16 12:33N 29°44' W 095°03'0 0.0
2015-May-16 11:34N 29°44' W 095°03'0 0.0
2015-May-16 10:33N 29°44' W 095°03'0 0.0
2015-May-16 09:33N 29°44' W 095°03'0 0.0
2015-May-16 08:33N 29°44' W 095°03'0 0.0
2015-May-16 07:33N 29°44' W 095°03'0 0.0
2015-May-16 06:33N 29°44' W 095°03'0 0.0
2015-May-16 05:33N 29°44' W 095°03'0 0.0
2015-May-16 04:33N 29°44' W 095°03'0 0.0
2015-May-16 03:33N 29°44' W 095°03'0 0.0
2015-May-16 02:33N 29°44' W 095°03'0 0.0
2015-May-16 01:33N 29°44' W 095°03'0 0.0
2015-May-16 00:33N 29°44' W 095°03'0 0.0
2015-May-15 23:33N 29°44' W 095°03'0 0.0
2015-May-15 22:33N 29°44' W 095°03'0 0.0
2015-May-15 21:33N 29°44' W 095°03'0 0.0
2015-May-15 20:33N 29°44' W 095°03'0 0.0
2015-May-15 19:33N 29°44' W 095°03'0 0.0
2015-May-15 18:32N 29°44' W 095°03'0 0.0
2015-May-15 17:33N 29°44' W 095°03'0 0.0
2015-May-15 16:33N 29°44' W 095°03'0 0.0
2015-May-15 15:33N 29°44' W 095°03'3 3.4
2015-May-15 14:33N 29°47' W 095°04'0 0.4
2015-May-15 13:33N 29°47' W 095°04'2 1.5
2015-May-15 12:14N 29°46' W 095°05'0 0.1
2015-May-15 07:27N 29°46' W 095°05'7 7.6
2015-May-15 06:33N 29°41' W 094°59'9 8.6
2015-May-15 05:33N 29°33' W 094°55'9 8.8
2015-May-15 04:32N 29°26' W 094°50'4 3.7
2015-May-15 03:33N 29°23' W 094°52'  
2015-May-12 14:32N 29°24' W 094°46'0 0.0
2015-May-12 13:14N 29°24' W 094°46'0 0.0
2015-May-12 12:28N 29°24' W 094°46'0 0.0
2015-May-12 10:33N 29°24' W 094°46'0 0.0
2015-May-12 09:29N 29°24' W 094°46'0 0.0
2015-May-12 05:25N 29°24' W 094°46'11 5.4
2015-May-12 03:21N 29°32' W 094°54'5 6.7
2015-May-12 02:33N 29°37' W 094°57'7 6.8
2015-May-12 01:33N 29°42' W 095°01'5 5.2
2015-May-12 00:32N 29°47' W 095°04'0 0.2
2015-May-11 22:32N 29°47' W 095°05'0 0.0
2015-May-11 21:33N 29°47' W 095°05'0 0.0
2015-May-11 20:33N 29°47' W 095°05'0 0.0
2015-May-11 19:30N 29°47' W 095°05'0 0.0
2015-May-11 18:33N 29°47' W 095°05'0 0.0
2015-May-11 17:33N 29°47' W 095°05'0 0.0
2015-May-11 16:33N 29°47' W 095°05'0 0.0
2015-May-11 15:33N 29°47' W 095°05'0 0.0
2015-May-11 14:33N 29°47' W 095°05'0 0.0
2015-May-11 13:33N 29°47' W 095°05'0 0.0
2015-May-11 12:33N 29°47' W 095°05'0 0.0
2015-May-11 11:33N 29°47' W 095°05'0 0.0
2015-May-11 10:33N 29°47' W 095°05'0 0.0
2015-May-11 09:33N 29°47' W 095°05'0 0.0
2015-May-11 08:33N 29°47' W 095°05'0 0.0
2015-May-11 07:33N 29°47' W 095°05'0 0.0
2015-May-11 06:33N 29°47' W 095°05'0 0.0
2015-May-11 05:33N 29°47' W 095°05'0 0.0
2015-May-11 04:33N 29°47' W 095°05'0 0.0
2015-May-11 03:33N 29°47' W 095°05'0 0.0
2015-May-11 02:32N 29°47' W 095°05'0 0.0
2015-May-11 01:33N 29°47' W 095°05'0 0.0
2015-May-11 00:33N 29°47' W 095°05'0 0.0
2015-May-10 23:25N 29°47' W 095°05'0 0.0
2015-May-10 22:29N 29°47' W 095°05'0 0.0
2015-May-10 21:33N 29°47' W 095°05'0 0.0
2015-May-10 20:30N 29°47' W 095°05'0 0.0
2015-May-10 19:33N 29°47' W 095°05'0 0.0
2015-May-10 18:32N 29°47' W 095°05'0 0.1
2015-May-10 17:09N 29°47' W 095°05'0 0.2
2015-May-10 16:31N 29°47' W 095°05'0 0.0
2015-May-10 15:30N 29°47' W 095°05'0 0.0
2015-May-10 14:33N 29°47' W 095°05'0 0.0
2015-May-10 13:29N 29°47' W 095°05'0 0.0
2015-May-10 12:16N 29°47' W 095°05'0 0.0
2015-May-10 11:32N 29°47' W 095°05'0 0.0
2015-May-10 10:29N 29°47' W 095°05'0 0.0
2015-May-10 09:33N 29°47' W 095°05'0 0.0
2015-May-10 08:33N 29°47' W 095°05'0 0.0
2015-May-10 07:31N 29°47' W 095°05'0 0.0
2015-May-10 06:33N 29°47' W 095°05'0 0.0
2015-May-10 05:31N 29°47' W 095°05'0 0.0
2015-May-10 04:20N 29°47' W 095°05'  
Track history (hours):
 
Tides and Currents Weather Stations Pressure Air Temp Water Temp Dewpoint Dewpoint Depression Visibility Wind Speed Wind Dir Waves Ship Positions

John G

Owner: Marquette Transportation Company Offshore LLC, Jefferson, LA. More information available from US FCC via Universal Licensing System and Coast Guard Vessel Documentation Center.

Last reported at 2015-May-20 04:18 UTC. Time now 2015-May-25 01:25 UTC.
Position N 29°33' W 090°24'.

Length 30 m; draft 3.3 m.

Type: Towing. MMSI: 367009680.

Date/timePositionNaut miles runAvg speedWind from/ knotsBaromVisibWave heightAir tempDewpointWater temp
2015-May-20 04:18N 29°33' W 090°24'4 5.0
2015-May-20 03:30N 29°34' W 090°28'5 4.9
2015-May-20 02:27N 29°34' W 090°34'4 4.1
2015-May-20 01:33N 29°35' W 090°38'4 3.9
2015-May-20 00:33N 29°37' W 090°42'3 3.3
2015-May-19 23:34N 29°34' W 090°44'3 2.8
2015-May-19 22:34N 29°32' W 090°47'6 6.1
2015-May-19 21:33N 29°33' W 090°54'  
2015-May-16 22:33N 29°22' W 094°48'21 6.9
2015-May-16 19:33N 29°41' W 094°59'5 3.9
2015-May-16 18:20N 29°44' W 095°03'0 0.1
2015-May-16 17:33N 29°44' W 095°03'0 0.1
2015-May-16 16:32N 29°44' W 095°03'0 0.1
2015-May-16 15:34N 29°44' W 095°03'0 0.0
2015-May-16 14:33N 29°44' W 095°03'0 0.0
2015-May-16 13:34N 29°44' W 095°03'0 0.0
2015-May-16 12:33N 29°44' W 095°03'0 0.0
2015-May-16 11:34N 29°44' W 095°03'0 0.0
2015-May-16 10:33N 29°44' W 095°03'0 0.0
2015-May-16 09:33N 29°44' W 095°03'0 0.0
2015-May-16 08:33N 29°44' W 095°03'0 0.0
2015-May-16 07:33N 29°44' W 095°03'0 0.0
2015-May-16 06:33N 29°44' W 095°03'0 0.0
2015-May-16 05:33N 29°44' W 095°03'0 0.0
2015-May-16 04:33N 29°44' W 095°03'0 0.0
2015-May-16 03:33N 29°44' W 095°03'0 0.0
2015-May-16 02:33N 29°44' W 095°03'0 0.0
2015-May-16 01:33N 29°44' W 095°03'0 0.0
2015-May-16 00:33N 29°44' W 095°03'0 0.0
2015-May-15 23:33N 29°44' W 095°03'0 0.0
2015-May-15 22:33N 29°44' W 095°03'0 0.0
2015-May-15 21:33N 29°44' W 095°03'0 0.0
2015-May-15 20:33N 29°44' W 095°03'0 0.0
2015-May-15 19:33N 29°44' W 095°03'0 0.0
2015-May-15 18:32N 29°44' W 095°03'0 0.0
2015-May-15 17:33N 29°44' W 095°03'0 0.0
2015-May-15 16:33N 29°44' W 095°03'0 0.0
2015-May-15 15:33N 29°44' W 095°03'3 3.4
2015-May-15 14:33N 29°47' W 095°04'0 0.4
2015-May-15 13:33N 29°47' W 095°04'2 1.5
2015-May-15 12:14N 29°46' W 095°05'0 0.1
2015-May-15 07:27N 29°46' W 095°05'7 7.6
2015-May-15 06:33N 29°41' W 094°59'9 8.6
2015-May-15 05:33N 29°33' W 094°55'9 8.8
2015-May-15 04:32N 29°26' W 094°50'4 3.7
2015-May-15 03:33N 29°23' W 094°52'  
2015-May-12 14:32N 29°24' W 094°46'0 0.0
2015-May-12 13:14N 29°24' W 094°46'0 0.0
2015-May-12 12:28N 29°24' W 094°46'0 0.0
2015-May-12 10:33N 29°24' W 094°46'0 0.0
2015-May-12 09:29N 29°24' W 094°46'0 0.0
2015-May-12 05:25N 29°24' W 094°46'11 5.4
2015-May-12 03:21N 29°32' W 094°54'5 6.7
2015-May-12 02:33N 29°37' W 094°57'7 6.8
2015-May-12 01:33N 29°42' W 095°01'5 5.2
2015-May-12 00:32N 29°47' W 095°04'0 0.2
2015-May-11 22:32N 29°47' W 095°05'0 0.0
2015-May-11 21:33N 29°47' W 095°05'0 0.0
2015-May-11 20:33N 29°47' W 095°05'0 0.0
2015-May-11 19:30N 29°47' W 095°05'0 0.0
2015-May-11 18:33N 29°47' W 095°05'0 0.0
2015-May-11 17:33N 29°47' W 095°05'0 0.0
2015-May-11 16:33N 29°47' W 095°05'0 0.0
2015-May-11 15:33N 29°47' W 095°05'0 0.0
2015-May-11 14:33N 29°47' W 095°05'0 0.0
2015-May-11 13:33N 29°47' W 095°05'0 0.0
2015-May-11 12:33N 29°47' W 095°05'0 0.0
2015-May-11 11:33N 29°47' W 095°05'0 0.0
2015-May-11 10:33N 29°47' W 095°05'0 0.0
2015-May-11 09:33N 29°47' W 095°05'0 0.0
2015-May-11 08:33N 29°47' W 095°05'0 0.0
2015-May-11 07:33N 29°47' W 095°05'0 0.0
2015-May-11 06:33N 29°47' W 095°05'0 0.0
2015-May-11 05:33N 29°47' W 095°05'0 0.0
2015-May-11 04:33N 29°47' W 095°05'0 0.0
2015-May-11 03:33N 29°47' W 095°05'0 0.0
2015-May-11 02:32N 29°47' W 095°05'0 0.0
2015-May-11 01:33N 29°47' W 095°05'0 0.0
2015-May-11 00:33N 29°47' W 095°05'0 0.0
2015-May-10 23:25N 29°47' W 095°05'0 0.0
2015-May-10 22:29N 29°47' W 095°05'0 0.0
2015-May-10 21:33N 29°47' W 095°05'0 0.0
2015-May-10 20:30N 29°47' W 095°05'0 0.0
2015-May-10 19:33N 29°47' W 095°05'0 0.0
2015-May-10 18:32N 29°47' W 095°05'0 0.1
2015-May-10 17:09N 29°47' W 095°05'0 0.2
2015-May-10 16:31N 29°47' W 095°05'0 0.0
2015-May-10 15:30N 29°47' W 095°05'0 0.0
2015-May-10 14:33N 29°47' W 095°05'0 0.0
2015-May-10 13:29N 29°47' W 095°05'0 0.0
2015-May-10 12:16N 29°47' W 095°05'0 0.0
2015-May-10 11:32N 29°47' W 095°05'0 0.0
2015-May-10 10:29N 29°47' W 095°05'0 0.0
2015-May-10 09:33N 29°47' W 095°05'0 0.0
2015-May-10 08:33N 29°47' W 095°05'0 0.0
2015-May-10 07:31N 29°47' W 095°05'0 0.0
2015-May-10 06:33N 29°47' W 095°05'0 0.0
2015-May-10 05:31N 29°47' W 095°05'0 0.0
2015-May-10 04:20N 29°47' W 095°05'  

Dump ship's entire track history